CPX783 Details

Departure: Noi Bai International Airport (VVNB)
Arrival: Incheon International Airport (RKSI) at N/A
Route: BUNBO1A NAKHA R474 LON R474 GYA B330 POU A599 PUD A593 AKARA A326 IKADI A326 MUDAL A591 AGAVO G597 GONAV GONAV2M
Notes:


Current Weather Information
VVNB 250500Z VRB03KT CAVOK 33/26 Q1004 NOSIG
RKSI 250500Z 29008KT 260V320 9999 FEW020 27/16 Q1013 NOSIG